• Join FlightAware (Why Join?)
  • Login
  • US Flag 
Rudolph Flight #1: Arrived! 
10:17AM EST


 

Airport Tracker/Info


-or-


 

Live Flight TrackerFlight Track Log ✈ NCB9032 ✈ 13-May-2013 ✈ CYEG - CYYE

Flight Track Log - Related Links

Times and Time Zones

All times are in EDT time to prevent confusion due to time zone crossing. See the NCB9032 flight status page for this flight to view local times or setup timezone preferences in your user account.

Time Position Orientation Groundspeed Altitude Reporting Facility
EDT Latitude Longitude Course Direction KTS MPH feet Rate Location/Type
12:43PM 53.3000 -113.6667 310° West 140 161 4,000  Level Edmonton Center
12:44PM 53.3333 -113.7333 310° West 170 196 5,000 1,140 Climbing Edmonton Center
12:45PM 53.3667 -113.8000 310° West 160 184 6,300 1,200 Climbing Edmonton Center
12:46PM 53.3833 -113.8500 299° West 170 196 7,400 1,080 Climbing Edmonton Center
12:47PM 53.5196 -114.1179 301° West  Level FlightAware Approximate
12:47PM 53.4000 -113.9167 293° West 170 196 8,500  Level Edmonton Center
12:48PM 53.4333 -113.9833 310° West 170 196 9,600 1,140 Climbing Edmonton Center
12:49PM 53.4667 -114.0833 299° West 180 207 10,800 1,140 Climbing Edmonton Center
12:50PM 53.5000 -114.1333 318° Northwest 180 207 11,900 1,080 Climbing Edmonton Center
12:51PM 53.5167 -114.2333 286° West 180 207 13,000 1,020 Climbing Edmonton Center
12:52PM 53.5500 -114.3000 310° West 190 219 14,000 1,020 Climbing Edmonton Center
12:53PM 53.5833 -114.3667 310° West 190 219 15,100 960 Climbing Edmonton Center
12:54PM 53.6000 -114.4500 289° West 190 219 16,000 960 Climbing Edmonton Center
12:55PM 53.6333 -114.5167 310° West 180 207 17,100 960 Climbing Edmonton Center
12:56PM 53.6667 -114.5833 310° West 180 207 18,000 840 Climbing Edmonton Center
12:57PM 53.6833 -114.6667 289° West 190 219 18,800 840 Climbing Edmonton Center
12:58PM 53.7167 -114.7333 310° West 190 219 19,700 720 Climbing Edmonton Center
12:59PM 53.7500 -114.8000 310° West 190 219 20,300 720 Climbing Edmonton Center
01:00PM 53.7667 -114.9000 286° West 180 207 21,200 900 Climbing Edmonton Center
01:01PM 53.8000 -114.9667 310° West 170 196 22,100 720 Climbing Edmonton Center
01:02PM 53.8333 -115.0333 310° West 170 196 22,700 540 Climbing Edmonton Center
01:03PM 53.8500 -115.0833 299° West 170 196 23,200 600 Climbing Edmonton Center
01:04PM 53.8667 -115.1500 293° West 150 173 24,000 360 Climbing Edmonton Center
01:05PM 53.9000 -115.2167 310° West 150 173 24,000  Level Edmonton Center
01:06PM 53.9167 -115.2833 293° West 170 196 24,000  Level Edmonton Center
01:07PM 53.9500 -115.3500 310° West 180 207 24,000  Level Edmonton Center
01:08PM 53.9833 -115.4333 304° West 190 219 24,000  Level Edmonton Center
01:09PM 54.0000 -115.5000 293° West 190 219 24,000  Level Edmonton Center
01:10PM 54.0333 -115.6000 300° West 200 230 24,000  Level Edmonton Center
01:11PM 54.0667 -115.6667 310° West 200 230 24,000  Level Edmonton Center
01:12PM 54.0833 -115.7667 286° West 200 230 24,000  Level Edmonton Center
01:13PM 54.1167 -115.8333 310° West 200 230 24,000  Level Edmonton Center
01:14PM 54.1500 -115.9000 311° West 200 230 24,000  Level Edmonton Center
01:15PM 54.2000 -115.9667 322° Northwest 210 242 24,000  Level Edmonton Center
01:16PM 54.2500 -116.0333 322° Northwest 210 242 24,000  Level Edmonton Center
01:17PM 54.2833 -116.1167 304° West 210 242 24,000  Level Edmonton Center
01:18PM 54.3333 -116.1833 322° Northwest 210 242 24,000  Level Edmonton Center
01:19PM 54.3833 -116.2500 322° Northwest 220 253 24,000  Level Edmonton Center
01:20PM 54.4167 -116.3167 311° West 220 253 24,000  Level Edmonton Center
01:21PM 54.4667 -116.4000 316° Northwest 220 253 24,000  Level Edmonton Center
01:22PM 54.5000 -116.4667 311° West 220 253 24,000  Level Edmonton Center
01:23PM 54.5500 -116.5333 322° Northwest 220 253 24,000  Level Edmonton Center
01:24PM 54.5833 -116.6000 311° West 220 253 24,000  Level Edmonton Center
01:25PM 54.6500 -116.6833 324° Northwest 220 253 24,000  Level Edmonton Center
01:26PM 54.6667 -116.7833 286° West 220 253 24,000  Level Edmonton Center
01:27PM 54.7333 -116.8667 324° Northwest 220 253 24,000  Level Edmonton Center
01:28PM 54.7667 -116.9333 311° West 220 253 24,000  Level Edmonton Center
01:29PM 54.8167 -117.0000 322° Northwest 220 253 24,000  Level Edmonton Center
01:30PM 54.8667 -117.0833 316° Northwest 230 265 24,000  Level Edmonton Center
01:31PM 54.9000 -117.1500 311° West 230 265 24,000  Level Edmonton Center
01:32PM 54.9500 -117.2333 316° Northwest 230 265 24,000  Level Edmonton Center
01:33PM 54.9833 -117.3333 300° West 230 265 24,000  Level Edmonton Center
01:34PM 55.0500 -117.4000 330° Northwest 230 265 24,000  Level Edmonton Center
01:35PM 55.1000 -117.4833 316° Northwest 230 265 24,000  Level Edmonton Center
01:36PM 55.1333 -117.5500 311° West 230 265 24,000  Level Edmonton Center
01:37PM 55.1833 -117.6333 316° Northwest 230 265 24,000  Level Edmonton Center
01:38PM 55.2167 -117.7333 300° West 230 265 24,000  Level Edmonton Center
01:39PM 55.2833 -117.8167 325° Northwest 240 276 24,000  Level Edmonton Center
01:40PM 55.3333 -117.8833 323° Northwest 240 276 24,000  Level Edmonton Center
01:41PM 55.3667 -117.9667 305° West 240 276 24,000  Level Edmonton Center
01:42PM 55.4167 -118.0667 311° West 240 276 24,000  Level Edmonton Center
01:43PM 55.4667 -118.1500 317° Northwest 240 276 24,000  Level Edmonton Center
01:44PM 55.5167 -118.2333 317° Northwest 240 276 24,000  Level Edmonton Center
01:45PM 55.5500 -118.3000 311° West 240 276 24,000  Level Edmonton Center
01:46PM 55.6000 -118.4000 312° West 240 276 24,000  Level Edmonton Center
01:47PM 55.6500 -118.4833 317° Northwest 240 276 24,000  Level Edmonton Center
01:48PM 55.7000 -118.5667 317° Northwest 240 276 24,000  Level Edmonton Center
01:49PM 55.7500 -118.6833 307° West 250 288 24,000  Level Edmonton Center
01:50PM 55.8000 -118.7500 323° Northwest 250 288 24,000  Level Edmonton Center
01:51PM 55.8333 -118.8333 305° West 240 276 24,000  Level Edmonton Center
01:52PM 55.9000 -118.9500 316° Northwest 250 288 24,000  Level Edmonton Center
01:53PM 55.9333 -119.0167 312° West 250 288 24,000  Level Edmonton Center
01:54PM 55.9833 -119.1000 317° Northwest 250 288 24,000  Level Edmonton Center
01:55PM 56.0333 -119.2167 308° West 250 288 24,000  Level Edmonton Center
01:56PM 56.0833 -119.3000 317° Northwest 250 288 24,000  Level Edmonton Center
01:57PM 56.1167 -119.3667 312° West 250 288 24,000  Level Edmonton Center
01:58PM 56.1667 -119.4833 308° West 250 288 24,000  Level Edmonton Center
01:59PM 56.2167 -119.5667 317° Northwest 250 288 24,000  Level Edmonton Center
02:00PM 56.2833 -119.6500 325° Northwest 250 288 24,000  Level Edmonton Center
02:01PM 56.3167 -119.7667 297° West 250 288 24,000  Level Edmonton Center
02:02PM 56.3500 -119.8333 312° West 250 288 24,000  Level Edmonton Center
02:03PM 56.4167 -119.9167 325° Northwest 250 288 24,000  Level Edmonton Center
02:04PM 56.4500 -120.0333 297° West 250 288 24,000  Level Edmonton Center
02:05PM 56.5167 -120.1167 325° Northwest 250 288 24,000  Level Edmonton Center
02:06PM 56.5500 -120.2000 306° West 250 288 24,000  Level Edmonton Center
02:07PM 56.6000 -120.3167 308° West 250 288 24,000  Level Edmonton Center
02:08PM 56.6500 -120.4000 318° Northwest 240 276 24,000  Level Edmonton Center
02:09PM 56.6833 -120.4833 306° West 240 276 24,000  Level Edmonton Center
02:10PM 56.7500 -120.6000 316° Northwest 250 288 24,000  Level Edmonton Center
02:11PM 56.7833 -120.6833 306° West 250 288 24,000  Level Edmonton Center
02:12PM 56.8500 -120.7667 326° Northwest 250 288 24,000  Level Edmonton Center
02:13PM 56.8833 -120.8833 298° West 250 288 24,000  Level Edmonton Center
02:15PM 56.9805 -120.9715 334° Northwest  Level FlightAware Approximate
02:20PM 57.2167 -121.5333 333° Northwest 240 276 24,000  Level Edmonton Center
02:22PM 57.3649 -121.3256 334° Northwest  Level FlightAware Approximate
02:22PM 57.2833 -121.7000 307° West 240 276 24,000  Level Edmonton Center
02:23PM 57.4198 -121.3768 333° Northwest  Level FlightAware Approximate
02:23PM 57.3500 -121.8333 313° West 240 276 24,000  Level Edmonton Center
02:24PM 57.4746 -121.4281 333° Northwest  Level FlightAware Approximate
02:24PM 57.3833 -121.8833 321° Northwest 250 288 24,000  Level Edmonton Center
02:25PM 57.5294 -121.4796 333° Northwest  Level FlightAware Approximate
02:25PM 57.4667 -121.9167 348° North 250 288 24,000  Level Edmonton Center
02:26PM 57.5333 -121.9833 332° Northwest 250 288 24,000  Level Edmonton Center
02:28PM 57.6667 -122.0500 345° North 250 288 24,000  Level Edmonton Center
02:30PM 57.7668 -122.1255 338° Northwest  Level FlightAware Approximate
02:37PM 58.1630 -122.4291 338° Northwest  Level FlightAware Approximate
02:38PM 58.2196 -122.4730 338° Northwest  Level FlightAware Approximate
02:39PM 58.2761 -122.5170 338° Northwest  Level FlightAware Approximate
02:40PM 58.3326 -122.5612 338° Northwest  Level FlightAware Approximate
02:41PM 58.3891 -122.6055 338° Northwest  Level FlightAware Approximate
02:42PM 58.4456 -122.6500 338° Northwest  Level FlightAware Approximate
02:43PM 58.5021 -122.6946 338° Northwest  Level FlightAware Approximate
02:44PM 58.5585 -122.7394 338° Northwest  Level FlightAware Approximate
02:45PM 58.6150 -122.7843 337° Northwest  Level FlightAware Approximate
02:46PM 58.6714 -122.8294 337° Northwest  Level FlightAware Approximate
02:47PM 58.7278 -122.8745 337° Northwest  Level FlightAware Approximate
02:48PM 58.7842 -122.9199 337° Northwest  Level FlightAware Approximate
02:49PM 58.8406 -122.9654 337° Northwest  Level FlightAware Approximate
02:50PM 58.8820 -122.9715 102° East  Level FlightAware Approximate
02:51PM 58.8692 -122.8559 102° East  Level FlightAware Approximate
02:52PM 58.8507 -122.7447 113° Southeast  Level FlightAware Approximate
02:53PM 58.8333 -122.6335 90° East  Level FlightAware Approximate
02:54PM 58.8333 -122.5833 90° East  Level FlightAware Approximate